Aérodrome :
LOGIN :

S'inscrire | Disclaimer

   EN    FR    IT 

 










Légende :    VFR   VFR Marginal   IFR   IFR Intensif   IFR Très Intensif
Visi : 
Plafond : 
>= 8 km
>= 3000ft
5 à 8 km
1000 à 3000 ft
1500m à 5 km
500 à 1000 ft
800 à 1500m
200 à 500 ft
< 800m
< 200 ft
Symboles :   Orages  Brouillard  Fortes neiges  Fortes précipitations  Vent > 20 kt
SIGMETs :   Divers  Orages  Givrage  Turbulence  Onde Orograph.  Cendres Volcan.







- Altitude de l'aérodrome : 147 ft
- Code IATA : DUS


EDDL - Düsseldorf Int.

DERNIER METAR :
  • 210750Z 15006KT CAVOK 08/05 Q1030 NOSIG

METARs EXPIRÉS :
  • 210720Z 16003KT 120V200 CAVOK 07/04 Q1030 NOSIG
  • 210650Z 16004KT 130V190 CAVOK 06/04 Q1029 NOSIG
  • 210620Z 17004KT 140V200 CAVOK 05/04 Q1029 NOSIG
  • 210550Z 15005KT CAVOK 05/04 Q1029 NOSIG
  • 210520Z 17004KT 130V200 CAVOK 05/03 Q1029 NOSIG

TAF TAF EDDL
Valide du 21 à 06h jusqu'au 22 à 12h UTC


210500Z 2106/2212 VRB03KT CAVOK
TEMPO 2108/2115 16006KT
BECMG 2205/2207 36006KT
PROB30
TEMPO 2207/2209 3500 -RA
Pas de NOTAMs connus pour ce terrain.



MET'MAP, la Météo Aéronautique d'un coup d'oeil ! - Copyright ORBIFLY Décembre 2007 - Disclaimer

ORBIFLY MET'MAP TEAM :

Programmation & Développement : Alexandra Zaïnal
Conception & Développement : Baudouin d'Aumeries
Co-Programmation & Développement : Marc-Olivier Méhu
Soutien technique & logistique : Manuel Goepfert

Contact : metmap@orbifly.com




SOURCES & CREDITS :

   NOAA